Cucamonga, CA (91729)

1:56 PM PDT on August 27, 2016 (GMT -0700)
Milliken/Mountain View | | Change Station

Elev 1295 ft 34.12 °N, 117.56 °W | Updated 12 minutes ago

Partly Cloudy
Partly Cloudy
79.8 °F
Feels Like 81 °F
N
2.0
Wind Variable Wind from SW
Gusts 9.0 mph

Today
High -- | Low -- °F
--% Chance of Precip.
Yesterday
High -- | Low -- °F
Precip. -- in
Pressure 29.93 in
Visibility 10.0 miles
Clouds Few 10000 ft
Heat Index 81 °F
Dew Point 61 °F
Humidity 53%
Rainfall 0.00 in
Snow Depth Not available.
6:20 AM 7:21 PM
Waning Crescent, 21% visible
METAR KONT 272053Z 27007KT 10SM FEW100 26/12 A2996 RMK AO2 SLP134 T02610122 58018
Pressure 29.93 in
Visibility 10.0 miles
Clouds Few 10000 ft
Heat Index 81 °F
Dew Point 61 °F
Humidity 53%
Rainfall 0.00 in
Snow Depth Not available.
6:20 AM 7:21 PM
Waning Crescent, 21% visible
METAR KONT 272053Z 27007KT 10SM FEW100 26/12 A2996 RMK AO2 SLP134 T02610122 58018

10-Day Weather Forecast

Almanac

Astronomy

Aug. 27, 2016 Rise Set
Actual Time
Civil Twilight
Nautical Twilight
Astronomical Twilight
Moon
Length of Visible Light
Length of Day
Tomorrow will be .
, % of the Moon is Illuminated

Today's Extremes

State Highs State Lows

Community

WunderPhotos

Upload Photos

1,935,438 photos uploaded!

WunderBlog® & News

Nearby

Air Quality

  Air Quality AQ Index Pollutant
Not available.

Snow Depth

Station Depth Elevation

Earthquake Activity

City Distance Mag. Time & Date
Minimum magnitude displayed is 2.5.

Coastal Water Temperatures

Place Temperature

Stations

Nearby Weather Stations

Station Location Temp. Windchill Dew Point Humidity Wind Precip. Elev Updated Type
                   

Watches & Warnings

There are currently no watches in effect.